Tuesday, October 17, 2017, 2:55 PM EDT
Back to Local

KFKL, Franklin, Venango Regional Airport

Location: Franklin, PA, United States Lat: 41.383
Local Time: 2:55 PM EDT (18:55 GMT) Lon: -79.867
Time Zone: US/Eastern Elev: 1538 ft

Show me the last for .
Show Coded

Time T Td Feel RH Dir Speed Gust Alt SLP Vis Weather Sky Remarks
2017-10-17 13:56 58 38 - 47 250° 10 21 30.27 - 10 CLR None
2017-10-17 12:56 57 37 - 47 250° 15 20 30.29 - 10 CLR None
2017-10-17 11:56 54 37 - 52 220° 9 - 30.31 30.34 10 CLR None
2017-10-17 10:56 50 36 46 58 220° 9 - 30.33 30.35 10 CLR None
2017-10-17 09:56 45 36 41 70 220° 7 - 30.34 30.37 10 CLR None
2017-10-17 08:56 38 37 34 96 210° 5 - 30.34 30.37 10 CLR None
2017-10-17 07:56 31 30 24 96 200° 7 - 30.33 30.37 10 CLR 6-hr Min Temp (8am): 30.9°F
6-hr Max Temp (8am): 35.1°F
2017-10-17 06:56 31 30 25 96 200° 6 - 30.32 30.36 10 CLR None
2017-10-17 05:56 32 30 29 92 200° 3 - 30.32 30.35 10 CLR None
2017-10-17 04:56 33 31 30 91 170° 3 - 30.30 30.34 10 CLR None
2017-10-17 03:56 33 32 30 95 220° 3 - 30.30 30.33 10 CLR None
2017-10-17 02:56 32 31 26 95 220° 6 - 30.29 30.32 10 CLR None
2017-10-17 01:56 35 33 32 92 240° 3 - 30.29 30.32 10 CLR 6-hr Min Temp (2am): 35.1°F
6-hr Max Temp (2am): 43.0°F
2017-10-17 00:56 36 34 32 92 220° 5 - 30.28 30.30 10 CLR 24-hr Min Temp (1am): 36.0°F
24-hr Max Temp (1am): 52.0°F
2017-10-16 23:56 37 35 33 92 240° 5 - 30.28 30.31 10 CLR None
2017-10-16 22:56 37 35 33 92 250° 5 - 30.29 30.32 10 CLR None
2017-10-16 21:56 38 34 34 85 260° 5 - 30.28 30.31 10 CLR None
2017-10-16 20:56 41 34 - 75 - Calm - 30.28 30.30 10 CLR None
2017-10-16 19:56 43 34 41 70 290° 3 - 30.27 30.29 10 CLR 6-hr Min Temp (8pm): 43.0°F
6-hr Max Temp (8pm): 52.0°F
2017-10-16 18:56 45 35 44 68 300° 3 - 30.26 30.29 10 CLR None
2017-10-16 17:56 49 32 47 51 Variable 5 - 30.25 30.27 10 SCT045 BKN060 None
2017-10-16 16:56 49 31 45 49 320° 8 - 30.23 30.26 10 FEW046 SCT055 6-hr Precip Total (5pm): 0.00"
2017-10-16 15:56 50 38 48 63 Variable 6 - 30.22 30.24 10 FEW031 SCT039 None
2017-10-16 14:56 50 39 - 65 - - - - - 10 FEW028 1-hr Precip Total: Trace

Support USWX by starting your Amazon purchase here.